sensor_id;sensor_type;location;lat;lon;timestamp;pressure;altitude;pressure_sealevel;temperature;humidity
72157;BME280;60035;52.122;5.406;2023-05-16T00:00:51;102093.03;;;9.87;100.00
72157;BME280;60035;52.122;5.406;2023-05-16T00:03:20;102105.88;;;9.83;100.00
72157;BME280;60035;52.122;5.406;2023-05-16T00:05:47;102103.34;;;9.80;100.00
72157;BME280;60035;52.122;5.406;2023-05-16T00:08:13;102105.88;;;9.77;100.00
72157;BME280;60035;52.122;5.406;2023-05-16T00:10:40;102109.34;;;9.72;100.00
72157;BME280;60035;52.122;5.406;2023-05-16T00:13:06;102112.75;;;9.69;100.00
72157;BME280;60035;52.122;5.406;2023-05-16T00:15:33;102117.91;;;9.64;100.00
72157;BME280;60035;52.122;5.406;2023-05-16T00:18:00;102111.94;;;9.64;100.00
72157;BME280;60035;52.122;5.406;2023-05-16T00:20:27;102117.91;;;9.63;100.00
72157;BME280;60035;52.122;5.406;2023-05-16T00:22:54;102118.78;;;9.59;100.00
72157;BME280;60035;52.122;5.406;2023-05-16T00:25:21;102117.13;;;9.48;100.00
72157;BME280;60035;52.122;5.406;2023-05-16T00:27:48;102114.59;;;9.42;100.00
72157;BME280;60035;52.122;5.406;2023-05-16T00:30:15;102111.22;;;9.34;100.00
72157;BME280;60035;52.122;5.406;2023-05-16T00:32:41;102112.09;;;9.31;100.00
72157;BME280;60035;52.122;5.406;2023-05-16T00:35:08;102112.06;;;9.30;100.00
72157;BME280;60035;52.122;5.406;2023-05-16T00:37:37;102114.66;;;9.24;100.00
72157;BME280;60035;52.122;5.406;2023-05-16T00:40:04;102117.22;;;9.21;100.00
72157;BME280;60035;52.122;5.406;2023-05-16T00:42:31;102114.69;;;9.16;100.00
72157;BME280;60035;52.122;5.406;2023-05-16T00:44:57;102118.94;;;9.12;100.00
72157;BME280;60035;52.122;5.406;2023-05-16T00:47:24;102118.09;;;9.09;100.00
72157;BME280;60035;52.122;5.406;2023-05-16T00:49:51;102114.72;;;9.05;100.00
72157;BME280;60035;52.122;5.406;2023-05-16T00:52:17;102114.72;;;9.02;100.00
72157;BME280;60035;52.122;5.406;2023-05-16T00:54:44;102119.00;;;8.95;100.00
72157;BME280;60035;52.122;5.406;2023-05-16T00:57:14;102121.56;;;8.91;100.00
72157;BME280;60035;52.122;5.406;2023-05-16T00:59:43;102123.28;;;8.86;100.00
72157;BME280;60035;52.122;5.406;2023-05-16T01:02:09;102119.03;;;8.81;100.00
72157;BME280;60035;52.122;5.406;2023-05-16T01:04:36;102122.44;;;8.77;100.00
72157;BME280;60035;52.122;5.406;2023-05-16T01:07:03;102125.84;;;8.75;100.00
72157;BME280;60035;52.122;5.406;2023-05-16T01:09:29;102118.19;;;8.70;100.00
72157;BME280;60035;52.122;5.406;2023-05-16T01:23:03;102122.44;;;8.53;100.00
72157;BME280;60035;52.122;5.406;2023-05-16T01:28:31;102131.81;;;8.54;100.00
72157;BME280;60035;52.122;5.406;2023-05-16T01:30:57;102131.78;;;8.50;100.00
72157;BME280;60035;52.122;5.406;2023-05-16T01:33:24;102132.66;;;8.48;100.00
72157;BME280;60035;52.122;5.406;2023-05-16T01:38:40;102131.78;;;8.44;100.00
72157;BME280;60035;52.122;5.406;2023-05-16T01:41:26;102126.69;;;8.43;100.00
72157;BME280;60035;52.122;5.406;2023-05-16T01:44:01;102132.63;;;8.42;100.00
72157;BME280;60035;52.122;5.406;2023-05-16T01:46:33;102128.38;;;8.38;100.00
72157;BME280;60035;52.122;5.406;2023-05-16T01:51:53;102135.19;;;8.34;100.00
72157;BME280;60035;52.122;5.406;2023-05-16T01:54:24;102138.59;;;8.30;100.00
72157;BME280;60035;52.122;5.406;2023-05-16T01:56:53;102135.16;;;8.25;100.00
72157;BME280;60035;52.122;5.406;2023-05-16T01:59:22;102139.41;;;8.21;100.00
72157;BME280;60035;52.122;5.406;2023-05-16T02:01:52;102141.97;;;8.16;100.00
72157;BME280;60035;52.122;5.406;2023-05-16T02:04:19;102136.84;;;8.13;100.00
72157;BME280;60035;52.122;5.406;2023-05-16T02:06:45;102143.66;;;8.11;100.00
72157;BME280;60035;52.122;5.406;2023-05-16T02:09:12;102143.63;;;8.08;100.00
72157;BME280;60035;52.122;5.406;2023-05-16T02:11:38;102148.75;;;8.08;100.00
72157;BME280;60035;52.122;5.406;2023-05-16T02:14:05;102155.56;;;8.06;100.00
72157;BME280;60035;52.122;5.406;2023-05-16T02:16:32;102154.72;;;8.06;100.00
72157;BME280;60035;52.122;5.406;2023-05-16T02:18:59;102158.09;;;8.03;100.00
72157;BME280;60035;52.122;5.406;2023-05-16T02:21:26;102151.28;;;8.02;100.00
72157;BME280;60035;52.122;5.406;2023-05-16T02:23:52;102162.34;;;8.01;100.00
72157;BME280;60035;52.122;5.406;2023-05-16T02:26:19;102158.06;;;7.98;100.00
72157;BME280;60035;52.122;5.406;2023-05-16T02:28:46;102153.81;;;7.97;100.00
72157;BME280;60035;52.122;5.406;2023-05-16T02:31:27;102159.78;;;7.96;100.00
72157;BME280;60035;52.122;5.406;2023-05-16T02:33:56;102161.47;;;7.96;100.00
72157;BME280;60035;52.122;5.406;2023-05-16T02:36:22;102159.75;;;7.95;100.00
72157;BME280;60035;52.122;5.406;2023-05-16T02:38:49;102158.06;;;7.92;100.00
72157;BME280;60035;52.122;5.406;2023-05-16T02:41:15;102160.59;;;7.91;100.00
72157;BME280;60035;52.122;5.406;2023-05-16T02:43:42;102167.41;;;7.89;100.00
72157;BME280;60035;52.122;5.406;2023-05-16T02:48:51;102166.53;;;7.88;100.00
72157;BME280;60035;52.122;5.406;2023-05-16T02:51:20;102169.97;;;7.89;100.00
72157;BME280;60035;52.122;5.406;2023-05-16T02:53:47;102164.00;;;7.87;100.00
72157;BME280;60035;52.122;5.406;2023-05-16T02:56:14;102172.50;;;7.86;100.00
72157;BME280;60035;52.122;5.406;2023-05-16T02:58:41;102169.94;;;7.86;100.00
72157;BME280;60035;52.122;5.406;2023-05-16T03:01:08;102174.19;;;7.83;100.00
72157;BME280;60035;52.122;5.406;2023-05-16T03:03:35;102164.84;;;7.82;100.00
72157;BME280;60035;52.122;5.406;2023-05-16T03:06:02;102176.75;;;7.82;100.00
72157;BME280;60035;52.122;5.406;2023-05-16T03:08:29;102175.03;;;7.79;100.00
72157;BME280;60035;52.122;5.406;2023-05-16T03:10:56;102178.44;;;7.75;100.00
72157;BME280;60035;52.122;5.406;2023-05-16T03:13:22;102175.00;;;7.72;100.00
72157;BME280;60035;52.122;5.406;2023-05-16T03:15:49;102177.56;;;7.70;100.00
72157;BME280;60035;52.122;5.406;2023-05-16T03:18:16;102177.50;;;7.67;100.00
72157;BME280;60035;52.122;5.406;2023-05-16T03:20:42;102181.78;;;7.66;100.00
72157;BME280;60035;52.122;5.406;2023-05-16T03:23:09;102191.09;;;7.63;100.00
72157;BME280;60035;52.122;5.406;2023-05-16T03:25:36;102191.09;;;7.58;100.00
72157;BME280;60035;52.122;5.406;2023-05-16T03:28:05;102185.97;;;7.55;100.00
72157;BME280;60035;52.122;5.406;2023-05-16T03:30:32;102189.34;;;7.53;100.00
72157;BME280;60035;52.122;5.406;2023-05-16T03:32:59;102197.84;;;7.52;100.00
72157;BME280;60035;52.122;5.406;2023-05-16T03:35:33;102196.16;;;7.50;100.00
72157;BME280;60035;52.122;5.406;2023-05-16T03:38:00;102191.88;;;7.45;100.00
72157;BME280;60035;52.122;5.406;2023-05-16T03:40:26;102191.84;;;7.42;100.00
72157;BME280;60035;52.122;5.406;2023-05-16T03:42:53;102201.16;;;7.38;100.00
72157;BME280;60035;52.122;5.406;2023-05-16T03:45:19;102195.22;;;7.38;100.00
72157;BME280;60035;52.122;5.406;2023-05-16T03:47:47;102201.16;;;7.35;100.00
72157;BME280;60035;52.122;5.406;2023-05-16T03:50:14;102201.16;;;7.35;100.00
72157;BME280;60035;52.122;5.406;2023-05-16T03:52:42;102201.97;;;7.32;100.00
72157;BME280;60035;52.122;5.406;2023-05-16T03:55:08;102204.53;;;7.29;100.00
72157;BME280;60035;52.122;5.406;2023-05-16T03:57:36;102218.94;;;7.29;100.00
72157;BME280;60035;52.122;5.406;2023-05-16T04:00:06;102218.09;;;7.30;100.00
72157;BME280;60035;52.122;5.406;2023-05-16T04:02:33;102212.16;;;7.26;100.00
72157;BME280;60035;52.122;5.406;2023-05-16T04:05:00;102208.75;;;7.26;100.00
72157;BME280;60035;52.122;5.406;2023-05-16T04:07:27;102213.00;;;7.24;100.00
72157;BME280;60035;52.122;5.406;2023-05-16T04:09:53;102215.50;;;7.22;100.00
72157;BME280;60035;52.122;5.406;2023-05-16T04:12:20;102218.91;;;7.21;100.00
72157;BME280;60035;52.122;5.406;2023-05-16T04:14:48;102218.88;;;7.20;100.00
72157;BME280;60035;52.122;5.406;2023-05-16T04:17:14;102218.03;;;7.21;100.00
72157;BME280;60035;52.122;5.406;2023-05-16T04:19:41;102215.50;;;7.22;100.00
72157;BME280;60035;52.122;5.406;2023-05-16T04:22:07;102219.75;;;7.22;100.00
72157;BME280;60035;52.122;5.406;2023-05-16T04:24:34;102220.63;;;7.24;100.00
72157;BME280;60035;52.122;5.406;2023-05-16T04:27:01;102220.63;;;7.24;100.00
72157;BME280;60035;52.122;5.406;2023-05-16T04:29:27;102226.56;;;7.24;100.00
72157;BME280;60035;52.122;5.406;2023-05-16T04:31:54;102230.00;;;7.26;100.00
72157;BME280;60035;52.122;5.406;2023-05-16T04:34:21;102234.25;;;7.32;100.00
72157;BME280;60035;52.122;5.406;2023-05-16T04:36:48;102235.97;;;7.34;100.00
72157;BME280;60035;52.122;5.406;2023-05-16T04:39:15;102233.44;;;7.36;100.00
72157;BME280;60035;52.122;5.406;2023-05-16T04:41:41;102230.06;;;7.39;100.00
72157;BME280;60035;52.122;5.406;2023-05-16T04:44:07;102237.72;;;7.42;100.00
72157;BME280;60035;52.122;5.406;2023-05-16T04:46:36;102237.75;;;7.46;100.00
72157;BME280;60035;52.122;5.406;2023-05-16T04:49:03;102241.16;;;7.48;100.00
72157;BME280;60035;52.122;5.406;2023-05-16T04:51:29;102248.84;;;7.52;100.00
72157;BME280;60035;52.122;5.406;2023-05-16T04:53:57;102243.75;;;7.56;100.00
72157;BME280;60035;52.122;5.406;2023-05-16T04:56:24;102250.59;;;7.63;100.00
72157;BME280;60035;52.122;5.406;2023-05-16T04:58:52;102254.88;;;7.66;100.00
72157;BME280;60035;52.122;5.406;2023-05-16T05:01:19;102246.38;;;7.72;100.00
72157;BME280;60035;52.122;5.406;2023-05-16T05:03:46;102252.38;;;7.77;100.00
72157;BME280;60035;52.122;5.406;2023-05-16T05:06:13;102254.09;;;7.82;100.00
72157;BME280;60035;52.122;5.406;2023-05-16T05:08:40;102250.69;;;7.88;100.00
72157;BME280;60035;52.122;5.406;2023-05-16T05:11:06;102253.28;;;7.96;100.00
72157;BME280;60035;52.122;5.406;2023-05-16T05:13:33;102256.72;;;8.04;100.00
72157;BME280;60035;52.122;5.406;2023-05-16T05:15:59;102259.31;;;8.10;100.00
72157;BME280;60035;52.122;5.406;2023-05-16T05:18:27;102254.22;;;8.16;100.00
72157;BME280;60035;52.122;5.406;2023-05-16T05:20:54;102255.09;;;8.25;100.00
72157;BME280;60035;52.122;5.406;2023-05-16T05:23:20;102255.97;;;8.33;100.00
72157;BME280;60035;52.122;5.406;2023-05-16T05:25:47;102256.88;;;8.43;100.00
72157;BME280;60035;52.122;5.406;2023-05-16T05:28:13;102260.31;;;8.53;100.00
72157;BME280;60035;52.122;5.406;2023-05-16T05:30:40;102264.59;;;8.61;100.00
72157;BME280;60035;52.122;5.406;2023-05-16T05:33:10;102269.69;;;8.69;100.00
72157;BME280;60035;52.122;5.406;2023-05-16T05:35:37;102275.69;;;8.76;100.00
72157;BME280;60035;52.122;5.406;2023-05-16T05:38:03;102273.97;;;8.81;100.00
72157;BME280;60035;52.122;5.406;2023-05-16T05:40:30;102280.78;;;8.82;100.00
72157;BME280;60035;52.122;5.406;2023-05-16T05:42:56;102280.78;;;8.80;100.00
72157;BME280;60035;52.122;5.406;2023-05-16T05:45:22;102273.97;;;8.87;100.00
72157;BME280;60035;52.122;5.406;2023-05-16T05:47:49;102273.97;;;8.98;100.00
72157;BME280;60035;52.122;5.406;2023-05-16T05:50:16;102273.13;;;9.08;100.00
72157;BME280;60035;52.122;5.406;2023-05-16T05:52:43;102284.19;;;9.15;100.00
72157;BME280;60035;52.122;5.406;2023-05-16T05:55:09;102276.53;;;9.21;100.00
72157;BME280;60035;52.122;5.406;2023-05-16T05:57:36;102285.03;;;9.29;100.00
72157;BME280;60035;52.122;5.406;2023-05-16T06:00:03;102286.72;;;9.37;100.00
72157;BME280;60035;52.122;5.406;2023-05-16T06:02:30;102282.47;;;9.45;100.00
72157;BME280;60035;52.122;5.406;2023-05-16T06:04:57;102282.44;;;9.57;100.00
72157;BME280;60035;52.122;5.406;2023-05-16T06:07:23;102288.38;;;9.65;100.00
72157;BME280;60035;52.122;5.406;2023-05-16T06:09:50;102287.53;;;9.76;99.76
72157;BME280;60035;52.122;5.406;2023-05-16T06:12:17;102292.59;;;9.87;98.32
72157;BME280;60035;52.122;5.406;2023-05-16T06:14:44;102298.56;;;9.92;97.66
72157;BME280;60035;52.122;5.406;2023-05-16T06:17:11;102298.53;;;9.99;97.45
72157;BME280;60035;52.122;5.406;2023-05-16T06:19:38;102296.81;;;10.05;96.13
72157;BME280;60035;52.122;5.406;2023-05-16T06:22:04;102300.22;;;10.10;95.59
72157;BME280;60035;52.122;5.406;2023-05-16T06:24:31;102303.56;;;10.18;94.89
72157;BME280;60035;52.122;5.406;2023-05-16T06:26:57;102317.22;;;10.23;94.92
72157;BME280;60035;52.122;5.406;2023-05-16T06:29:24;102310.38;;;10.27;93.34
72157;BME280;60035;52.122;5.406;2023-05-16T06:31:50;102313.78;;;10.32;92.93
72157;BME280;60035;52.122;5.406;2023-05-16T06:34:17;102320.59;;;10.39;92.36
72157;BME280;60035;52.122;5.406;2023-05-16T06:36:44;102315.44;;;10.42;92.88
72157;BME280;60035;52.122;5.406;2023-05-16T06:39:10;102299.16;;;10.56;93.10
72157;BME280;60035;52.122;5.406;2023-05-16T06:41:37;102315.34;;;10.62;92.12
72157;BME280;60035;52.122;5.406;2023-05-16T06:44:03;102309.38;;;10.65;92.34
72157;BME280;60035;52.122;5.406;2023-05-16T06:46:30;102304.16;;;10.77;92.05
72157;BME280;60035;52.122;5.406;2023-05-16T06:48:58;102305.84;;;10.77;91.02
72157;BME280;60035;52.122;5.406;2023-05-16T06:51:24;102316.16;;;10.66;90.50
72157;BME280;60035;52.122;5.406;2023-05-16T06:53:51;102305.09;;;10.64;90.32
72157;BME280;60035;52.122;5.406;2023-05-16T06:56:17;102314.47;;;10.62;90.41
72157;BME280;60035;52.122;5.406;2023-05-16T06:58:44;102315.31;;;10.67;90.16
72157;BME280;60035;52.122;5.406;2023-05-16T07:01:11;102312.72;;;10.73;90.98
72157;BME280;60035;52.122;5.406;2023-05-16T07:03:37;102314.41;;;10.76;90.47
72157;BME280;60035;52.122;5.406;2023-05-16T07:06:04;102320.34;;;10.84;90.52
72157;BME280;60035;52.122;5.406;2023-05-16T07:08:31;102314.34;;;10.85;89.77
72157;BME280;60035;52.122;5.406;2023-05-16T07:10:58;102320.34;;;10.84;89.67
72157;BME280;60035;52.122;5.406;2023-05-16T07:13:24;102319.50;;;10.79;89.00
72157;BME280;60035;52.122;5.406;2023-05-16T07:15:51;102321.25;;;10.74;88.98
72157;BME280;60035;52.122;5.406;2023-05-16T07:18:18;102319.47;;;10.87;89.02
72157;BME280;60035;52.122;5.406;2023-05-16T07:20:44;102321.94;;;11.02;87.68
72157;BME280;60035;52.122;5.406;2023-05-16T07:23:11;102320.09;;;11.18;87.43
72157;BME280;60035;52.122;5.406;2023-05-16T07:25:37;102320.97;;;11.12;87.07
72157;BME280;60035;52.122;5.406;2023-05-16T07:28:04;102323.56;;;11.09;86.48
72157;BME280;60035;52.122;5.406;2023-05-16T07:30:31;102327.78;;;11.18;86.35
72157;BME280;60035;52.122;5.406;2023-05-16T07:33:00;102335.31;;;11.38;86.13
72157;BME280;60035;52.122;5.406;2023-05-16T07:35:27;102323.22;;;11.49;84.07
72157;BME280;60035;52.122;5.406;2023-05-16T07:37:54;102317.97;;;11.63;84.39
72157;BME280;60035;52.122;5.406;2023-05-16T07:40:20;102316.03;;;11.86;84.89
72157;BME280;60035;52.122;5.406;2023-05-16T07:42:51;102327.03;;;12.00;84.24
72157;BME280;60035;52.122;5.406;2023-05-16T07:45:17;102321.97;;;11.91;82.46
72157;BME280;60035;52.122;5.406;2023-05-16T07:47:44;102315.06;;;11.97;82.68
72157;BME280;60035;52.122;5.406;2023-05-16T07:50:11;102312.56;;;11.88;81.58
72157;BME280;60035;52.122;5.406;2023-05-16T07:52:38;102308.19;;;11.99;81.22
72157;BME280;60035;52.122;5.406;2023-05-16T07:55:05;102325.16;;;12.11;80.90
72157;BME280;60035;52.122;5.406;2023-05-16T07:57:31;102317.13;;;12.38;80.71
72157;BME280;60035;52.122;5.406;2023-05-16T07:59:58;102324.66;;;12.52;80.20
72157;BME280;60035;52.122;5.406;2023-05-16T08:02:24;102330.00;;;12.36;80.34
72157;BME280;60035;52.122;5.406;2023-05-16T08:04:56;102336.25;;;12.15;80.86
72157;BME280;60035;52.122;5.406;2023-05-16T08:07:25;102347.53;;;11.98;82.23
72157;BME280;60035;52.122;5.406;2023-05-16T08:09:52;102332.31;;;11.80;83.28
72157;BME280;60035;52.122;5.406;2023-05-16T08:12:18;102333.31;;;11.66;82.71
72157;BME280;60035;52.122;5.406;2023-05-16T08:14:45;102348.84;;;11.49;81.56
72157;BME280;60035;52.122;5.406;2023-05-16T08:17:12;102336.13;;;11.40;82.54
72157;BME280;60035;52.122;5.406;2023-05-16T08:19:41;102343.63;;;11.63;83.17
72157;BME280;60035;52.122;5.406;2023-05-16T08:22:08;102338.19;;;11.91;83.43
72157;BME280;60035;52.122;5.406;2023-05-16T08:24:35;102337.97;;;12.13;83.17
72157;BME280;60035;52.122;5.406;2023-05-16T08:27:01;102335.09;;;12.39;84.20
72157;BME280;60035;52.122;5.406;2023-05-16T08:29:28;102329.66;;;12.62;83.37
72157;BME280;60035;52.122;5.406;2023-05-16T08:31:55;102323.22;;;12.91;83.03
72157;BME280;60035;52.122;5.406;2023-05-16T08:34:22;102329.69;;;13.15;81.96
72157;BME280;60035;52.122;5.406;2023-05-16T08:36:48;102334.53;;;13.34;81.33
72157;BME280;60035;52.122;5.406;2023-05-16T08:39:15;102331.28;;;13.23;79.06
72157;BME280;60035;52.122;5.406;2023-05-16T08:41:42;102326.41;;;13.06;77.61
72157;BME280;60035;52.122;5.406;2023-05-16T08:44:08;102332.03;;;12.75;75.20
72157;BME280;60035;52.122;5.406;2023-05-16T08:46:39;102325.41;;;12.60;76.16
72157;BME280;60035;52.122;5.406;2023-05-16T08:49:07;102330.13;;;12.88;77.16
72157;BME280;60035;52.122;5.406;2023-05-16T08:51:36;102319.38;;;13.17;76.20
72157;BME280;60035;52.122;5.406;2023-05-16T08:54:05;102320.84;;;13.33;76.32
72157;BME280;60035;52.122;5.406;2023-05-16T08:56:35;102320.72;;;13.41;71.13
72157;BME280;60035;52.122;5.406;2023-05-16T08:59:03;102329.16;;;13.49;72.13
72157;BME280;60035;52.122;5.406;2023-05-16T09:01:30;102323.81;;;13.60;68.53
72157;BME280;60035;52.122;5.406;2023-05-16T09:03:59;102328.09;;;13.60;69.22
72157;BME280;60035;52.122;5.406;2023-05-16T09:06:26;102327.69;;;13.83;68.84
72157;BME280;60035;52.122;5.406;2023-05-16T09:08:53;102332.31;;;14.09;69.45
72157;BME280;60035;52.122;5.406;2023-05-16T09:11:20;102330.16;;;14.30;69.92
72157;BME280;60035;52.122;5.406;2023-05-16T09:13:47;102346.00;;;14.13;69.03
72157;BME280;60035;52.122;5.406;2023-05-16T09:16:18;102342.72;;;14.03;69.66
72157;BME280;60035;52.122;5.406;2023-05-16T09:18:59;102346.47;;;13.88;67.39
72157;BME280;60035;52.122;5.406;2023-05-16T09:21:28;102337.75;;;13.94;65.48
72157;BME280;60035;52.122;5.406;2023-05-16T09:24:07;102338.16;;;14.18;64.55
72157;BME280;60035;52.122;5.406;2023-05-16T09:26:35;102336.03;;;14.37;65.57
72157;BME280;60035;52.122;5.406;2023-05-16T09:29:10;102341.34;;;14.70;62.13
72157;BME280;60035;52.122;5.406;2023-05-16T09:31:37;102339.31;;;14.84;61.32
72157;BME280;60035;52.122;5.406;2023-05-16T09:34:08;102332.75;;;15.07;60.90
72157;BME280;60035;52.122;5.406;2023-05-16T09:36:36;102326.28;;;15.25;58.31
72157;BME280;60035;52.122;5.406;2023-05-16T09:39:07;102335.31;;;15.43;58.53
72157;BME280;60035;52.122;5.406;2023-05-16T09:41:34;102330.75;;;15.53;58.11
72157;BME280;60035;52.122;5.406;2023-05-16T09:44:05;102333.72;;;15.70;56.55
72157;BME280;60035;52.122;5.406;2023-05-16T09:46:36;102338.34;;;15.59;58.18
72157;BME280;60035;52.122;5.406;2023-05-16T09:49:03;102344.94;;;15.02;60.14
72157;BME280;60035;52.122;5.406;2023-05-16T09:51:30;102346.56;;;15.04;61.30
72157;BME280;60035;52.122;5.406;2023-05-16T09:53:57;102359.19;;;14.79;62.13
72157;BME280;60035;52.122;5.406;2023-05-16T09:56:24;102352.31;;;14.79;62.22
72157;BME280;60035;52.122;5.406;2023-05-16T09:58:51;102340.75;;;15.32;59.74
72157;BME280;60035;52.122;5.406;2023-05-16T10:01:18;102336.88;;;15.81;57.70
72157;BME280;60035;52.122;5.406;2023-05-16T10:03:44;102330.41;;;15.98;57.22
72157;BME280;60035;52.122;5.406;2023-05-16T10:06:12;102321.56;;;15.74;56.20
72157;BME280;60035;52.122;5.406;2023-05-16T10:08:42;102344.03;;;15.39;57.78
72157;BME280;60035;52.122;5.406;2023-05-16T10:11:09;102344.66;;;15.12;58.68
72157;BME280;60035;52.122;5.406;2023-05-16T10:13:37;102337.81;;;15.11;58.56
72157;BME280;60035;52.122;5.406;2023-05-16T10:16:10;102342.19;;;15.42;58.46
72157;BME280;60035;52.122;5.406;2023-05-16T10:18:39;102346.03;;;15.60;53.93
72157;BME280;60035;52.122;5.406;2023-05-16T10:21:13;102343.16;;;15.71;51.71
72157;BME280;60035;52.122;5.406;2023-05-16T10:23:42;102345.19;;;15.60;52.77
72157;BME280;60035;52.122;5.406;2023-05-16T10:26:12;102342.88;;;15.49;54.25
72157;BME280;60035;52.122;5.406;2023-05-16T10:28:40;102349.19;;;15.37;55.91
72157;BME280;60035;52.122;5.406;2023-05-16T10:31:09;102345.19;;;15.27;57.66
72157;BME280;60035;52.122;5.406;2023-05-16T10:33:36;102350.44;;;15.22;58.57
72157;BME280;60035;52.122;5.406;2023-05-16T10:36:04;102351.25;;;15.24;57.39
72157;BME280;60035;52.122;5.406;2023-05-16T10:38:32;102350.91;;;15.38;54.25
72157;BME280;60035;52.122;5.406;2023-05-16T10:41:00;102335.25;;;15.44;53.59
72157;BME280;60035;52.122;5.406;2023-05-16T10:43:28;102352.22;;;15.55;53.52
72157;BME280;60035;52.122;5.406;2023-05-16T10:45:58;102342.28;;;15.72;54.19
72157;BME280;60035;52.122;5.406;2023-05-16T10:48:30;102344.03;;;15.72;54.15
72157;BME280;60035;52.122;5.406;2023-05-16T10:50:56;102349.50;;;15.59;55.13
72157;BME280;60035;52.122;5.406;2023-05-16T10:53:31;102345.63;;;15.43;55.34
72157;BME280;60035;52.122;5.406;2023-05-16T11:01:24;102332.69;;;16.09;55.03
72157;BME280;60035;52.122;5.406;2023-05-16T11:06:23;102317.63;;;16.52;50.77
72157;BME280;60035;52.122;5.406;2023-05-16T11:17:13;102340.06;;;16.51;50.67
72157;BME280;60035;52.122;5.406;2023-05-16T11:19:56;102337.44;;;16.23;48.25
72157;BME280;60035;52.122;5.406;2023-05-16T11:22:31;102340.06;;;15.91;46.76
72157;BME280;60035;52.122;5.406;2023-05-16T11:27:29;102342.72;;;15.55;49.47
72157;BME280;60035;52.122;5.406;2023-05-16T11:32:39;102351.28;;;15.57;50.54
72157;BME280;60035;52.122;5.406;2023-05-16T11:35:09;102358.59;;;15.41;50.48
72157;BME280;60035;52.122;5.406;2023-05-16T11:37:41;102357.41;;;15.19;51.36
72157;BME280;60035;52.122;5.406;2023-05-16T11:40:09;102363.00;;;15.02;52.62
72157;BME280;60035;52.122;5.406;2023-05-16T11:42:39;102363.00;;;15.02;52.90
72157;BME280;60035;52.122;5.406;2023-05-16T11:45:17;102366.16;;;15.13;52.96
72157;BME280;60035;52.122;5.406;2023-05-16T11:47:45;102371.53;;;15.04;52.75
72157;BME280;60035;52.122;5.406;2023-05-16T11:50:22;102365.75;;;14.94;54.18
72157;BME280;60035;52.122;5.406;2023-05-16T11:52:53;102364.38;;;14.77;54.05
72157;BME280;60035;52.122;5.406;2023-05-16T11:55:25;102367.59;;;14.48;53.68
72157;BME280;60035;52.122;5.406;2023-05-16T11:58:07;102374.69;;;14.38;54.28
72157;BME280;60035;52.122;5.406;2023-05-16T12:00:34;102369.53;;;14.38;54.46
72157;BME280;60035;52.122;5.406;2023-05-16T12:03:03;102371.94;;;14.44;55.74
72157;BME280;60035;52.122;5.406;2023-05-16T12:05:31;102376.81;;;14.58;55.86
72157;BME280;60035;52.122;5.406;2023-05-16T12:08:00;102367.84;;;14.76;56.27
72157;BME280;60035;52.122;5.406;2023-05-16T12:10:30;102365.00;;;14.89;56.30
72157;BME280;60035;52.122;5.406;2023-05-16T12:12:57;102377.75;;;14.95;54.90
72157;BME280;60035;52.122;5.406;2023-05-16T12:15:24;102382.22;;;14.87;54.63
72157;BME280;60035;52.122;5.406;2023-05-16T12:17:51;102359.56;;;15.01;53.59
72157;BME280;60035;52.122;5.406;2023-05-16T12:20:18;102367.91;;;15.12;53.03
72157;BME280;60035;52.122;5.406;2023-05-16T12:22:45;102364.41;;;15.15;53.80
72157;BME280;60035;52.122;5.406;2023-05-16T12:27:48;102376.09;;;14.92;55.38
72157;BME280;60035;52.122;5.406;2023-05-16T12:30:18;102364.66;;;15.03;55.28
72157;BME280;60035;52.122;5.406;2023-05-16T12:32:51;102370.38;;;15.15;55.26
72157;BME280;60035;52.122;5.406;2023-05-16T12:35:18;102374.44;;;15.26;54.47
72157;BME280;60035;52.122;5.406;2023-05-16T12:37:45;102375.09;;;15.34;53.63
72157;BME280;60035;52.122;5.406;2023-05-16T12:40:11;102371.69;;;15.33;53.77
72157;BME280;60035;52.122;5.406;2023-05-16T12:42:38;102376.91;;;15.30;53.55
72157;BME280;60035;52.122;5.406;2023-05-16T12:45:13;102370.16;;;15.25;54.32
72157;BME280;60035;52.122;5.406;2023-05-16T12:47:41;102369.97;;;15.32;54.59
72157;BME280;60035;52.122;5.406;2023-05-16T12:50:12;102369.19;;;15.96;53.83
72157;BME280;60035;52.122;5.406;2023-05-16T12:52:50;102359.56;;;16.33;53.82
72157;BME280;60035;52.122;5.406;2023-05-16T12:55:19;102375.63;;;16.43;52.94
72157;BME280;60035;52.122;5.406;2023-05-16T12:57:47;102363.88;;;16.03;52.47
72157;BME280;60035;52.122;5.406;2023-05-16T13:00:19;102370.34;;;15.86;53.63
72157;BME280;60035;52.122;5.406;2023-05-16T13:02:47;102375.66;;;15.47;52.91
72157;BME280;60035;52.122;5.406;2023-05-16T13:05:14;102390.28;;;15.10;53.58
72157;BME280;60035;52.122;5.406;2023-05-16T13:07:41;102392.50;;;14.90;53.75
72157;BME280;60035;52.122;5.406;2023-05-16T13:10:08;102386.06;;;14.70;54.65
72157;BME280;60035;52.122;5.406;2023-05-16T13:12:40;102387.00;;;14.64;55.51
72157;BME280;60035;52.122;5.406;2023-05-16T13:15:07;102391.88;;;14.78;55.71
72157;BME280;60035;52.122;5.406;2023-05-16T13:17:36;102386.25;;;14.98;55.35
72157;BME280;60035;52.122;5.406;2023-05-16T13:20:03;102379.84;;;15.16;54.87
72157;BME280;60035;52.122;5.406;2023-05-16T13:22:43;102385.69;;;15.23;54.80
72157;BME280;60035;52.122;5.406;2023-05-16T13:25:10;102379.19;;;15.08;54.56
72157;BME280;60035;52.122;5.406;2023-05-16T13:27:37;102384.75;;;14.90;55.22
72157;BME280;60035;52.122;5.406;2023-05-16T13:30:04;102385.19;;;14.71;55.12
72157;BME280;60035;52.122;5.406;2023-05-16T13:32:31;102387.19;;;14.57;55.96
72157;BME280;60035;52.122;5.406;2023-05-16T13:34:57;102388.19;;;14.48;56.13
72157;BME280;60035;52.122;5.406;2023-05-16T13:37:24;102386.72;;;14.36;56.63
72157;BME280;60035;52.122;5.406;2023-05-16T13:39:51;102389.41;;;14.30;56.76